createdAt,value
2023-05-27T00:00:09.557Z,102994.53
2023-05-27T00:02:39.480Z,102996.41
2023-05-27T00:05:09.654Z,102994.90
2023-05-27T00:07:39.257Z,102993.49
2023-05-27T00:10:09.040Z,102998.68
2023-05-27T00:12:38.416Z,102996.58
2023-05-27T00:15:09.113Z,103000.28
2023-05-27T00:17:40.473Z,102997.81
2023-05-27T00:20:11.172Z,102990.59
2023-05-27T00:22:41.841Z,102991.52
2023-05-27T00:25:11.621Z,102984.59
2023-05-27T00:27:41.352Z,102983.42
2023-05-27T00:30:11.653Z,102984.59
2023-05-27T00:32:41.224Z,102983.55
2023-05-27T00:35:11.397Z,102977.20
2023-05-27T00:37:40.769Z,102971.22
2023-05-27T00:40:14.278Z,102969.30
2023-05-27T00:42:43.752Z,102969.91
2023-05-27T00:45:14.261Z,102966.17
2023-05-27T00:47:44.118Z,102966.77
2023-05-27T00:50:13.514Z,102961.58
2023-05-27T00:52:43.059Z,102966.09
2023-05-27T00:55:12.579Z,102961.85
2023-05-27T00:57:41.977Z,102962.00
2023-05-27T01:00:12.562Z,102963.33
2023-05-27T01:02:43.678Z,102961.50
2023-05-27T01:05:15.212Z,102961.78
2023-05-27T01:07:54.006Z,102955.92
2023-05-27T01:10:32.333Z,102958.28
2023-05-27T01:13:03.854Z,102949.53
2023-05-27T01:15:34.060Z,102949.95
2023-05-27T01:18:05.091Z,102947.09
2023-05-27T01:20:35.187Z,102945.11
2023-05-27T01:23:05.553Z,102946.65
2023-05-27T01:25:34.875Z,102949.34
2023-05-27T01:28:05.152Z,102949.08
2023-05-27T01:30:34.550Z,102942.89
2023-05-27T01:33:16.287Z,102948.98
2023-05-27T01:35:49.176Z,102953.80
2023-05-27T01:38:23.540Z,102955.70
2023-05-27T01:40:53.301Z,102956.17
2023-05-27T01:43:22.981Z,102944.87
2023-05-27T01:45:52.623Z,102947.42
2023-05-27T01:48:22.681Z,102941.41
2023-05-27T01:50:52.026Z,102948.73
2023-05-27T01:53:21.653Z,102947.55
2023-05-27T01:55:51.495Z,102952.96
2023-05-27T01:58:22.244Z,102946.84
2023-05-27T02:00:52.201Z,102949.27
2023-05-27T02:03:21.740Z,102945.46
2023-05-27T02:05:51.135Z,102941.67
2023-05-27T02:08:21.011Z,102948.02
2023-05-27T02:10:50.504Z,102947.81
2023-05-27T02:13:19.958Z,102948.67
2023-05-27T02:15:49.525Z,102951.49
2023-05-27T02:18:21.960Z,102948.36
2023-05-27T02:20:51.328Z,102953.84
2023-05-27T02:23:21.368Z,102950.45
2023-05-27T02:25:51.237Z,102957.62
2023-05-27T02:28:20.864Z,102947.63
2023-05-27T02:30:52.134Z,102947.37
2023-05-27T02:33:21.580Z,102947.75
2023-05-27T02:35:51.228Z,102947.75
2023-05-27T02:38:20.936Z,102949.52
2023-05-27T02:40:50.443Z,102947.56
2023-05-27T02:43:19.872Z,102945.45
2023-05-27T02:45:50.597Z,102949.39
2023-05-27T02:48:20.381Z,102949.14
2023-05-27T02:50:49.812Z,102948.08
2023-05-27T02:53:19.362Z,102939.66
2023-05-27T02:55:48.925Z,102945.65
2023-05-27T02:58:18.956Z,102945.10
2023-05-27T03:00:48.555Z,102951.89
2023-05-27T03:03:18.318Z,102948.84
2023-05-27T03:05:48.875Z,102947.54
2023-05-27T03:08:18.433Z,102941.11
2023-05-27T03:10:49.476Z,102947.60
2023-05-27T03:13:18.856Z,102944.91
2023-05-27T03:15:48.273Z,102947.16
2023-05-27T03:18:17.623Z,102948.72
2023-05-27T03:20:46.991Z,102944.53
2023-05-27T03:23:16.792Z,102944.56
2023-05-27T03:25:47.178Z,102941.23
2023-05-27T03:28:17.453Z,102945.48
2023-05-27T03:30:47.273Z,102943.31
2023-05-27T03:33:18.319Z,102943.59
2023-05-27T03:35:47.790Z,102940.98
2023-05-27T03:38:17.321Z,102937.30
2023-05-27T03:40:46.900Z,102937.74
2023-05-27T03:43:16.423Z,102932.36
2023-05-27T03:45:46.029Z,102931.24
2023-05-27T03:48:15.434Z,102928.17
2023-05-27T03:50:44.889Z,102928.48
2023-05-27T03:53:14.254Z,102930.44
2023-05-27T03:55:44.983Z,102925.19
2023-05-27T03:58:14.608Z,102924.90
2023-05-27T04:00:44.142Z,102921.25
2023-05-27T04:03:13.820Z,102926.38
2023-05-27T04:05:43.517Z,102926.25
2023-05-27T04:08:14.350Z,102917.19
2023-05-27T04:10:43.695Z,102917.35
2023-05-27T04:13:13.057Z,102920.94
2023-05-27T04:15:43.580Z,102914.12
2023-05-27T04:18:12.924Z,102922.98
2023-05-27T04:20:44.201Z,102921.52
2023-05-27T04:23:14.789Z,102926.50
2023-05-27T04:25:44.265Z,102917.31
2023-05-27T04:28:16.625Z,102924.48
2023-05-27T04:30:49.288Z,102924.33
2023-05-27T04:33:20.372Z,102916.56
2023-05-27T04:35:50.787Z,102918.68
2023-05-27T04:38:22.170Z,102914.48
2023-05-27T04:40:59.700Z,102909.47
2023-05-27T04:43:30.942Z,102914.33
2023-05-27T04:46:03.685Z,102907.13
2023-05-27T04:48:34.966Z,102906.45
2023-05-27T04:51:04.339Z,102911.84
2023-05-27T04:53:35.695Z,102911.20
2023-05-27T04:56:05.351Z,102911.70
2023-05-27T04:58:35.403Z,102908.17
2023-05-27T05:01:05.700Z,102900.27
2023-05-27T05:03:39.808Z,102896.98
2023-05-27T05:06:10.456Z,102899.41
2023-05-27T05:08:39.910Z,102900.08
2023-05-27T05:11:09.303Z,102899.20
2023-05-27T05:13:39.816Z,102898.20
2023-05-27T05:16:09.249Z,102899.97
2023-05-27T05:18:39.939Z,102906.02
2023-05-27T05:21:09.330Z,102901.22
2023-05-27T05:23:41.247Z,102897.30
2023-05-27T05:26:10.887Z,102886.30
2023-05-27T05:28:42.077Z,102895.63
2023-05-27T05:31:12.015Z,102899.19
2023-05-27T05:33:41.432Z,102897.73
2023-05-27T05:36:11.468Z,102897.65
2023-05-27T05:39:00.697Z,102899.45
2023-05-27T05:41:30.284Z,102899.76
2023-05-27T05:43:59.693Z,102894.41
2023-05-27T05:46:29.217Z,102885.71
2023-05-27T05:48:58.694Z,102885.44
2023-05-27T05:51:29.768Z,102881.80
2023-05-27T05:54:02.802Z,102885.09
2023-05-27T05:56:34.227Z,102879.33
2023-05-27T05:59:04.203Z,102886.78
2023-05-27T06:01:34.784Z,102876.16
2023-05-27T06:04:05.860Z,102880.36
2023-05-27T06:06:43.098Z,102878.25
2023-05-27T06:09:30.718Z,102878.61
2023-05-27T06:12:02.141Z,102878.53
2023-05-27T06:14:33.209Z,102879.47
2023-05-27T06:17:03.144Z,102876.98
2023-05-27T06:19:32.569Z,102873.03
2023-05-27T06:22:02.713Z,102878.74
2023-05-27T06:24:51.977Z,102866.94
2023-05-27T06:27:29.169Z,102865.70
2023-05-27T06:29:58.734Z,102861.49
2023-05-27T06:32:32.837Z,102849.98
2023-05-27T06:35:02.219Z,102852.16
2023-05-27T06:37:31.745Z,102856.98
2023-05-27T06:40:01.079Z,102848.97
2023-05-27T06:42:30.644Z,102847.97
2023-05-27T06:45:04.734Z,102849.30
2023-05-27T06:47:34.815Z,102847.55
2023-05-27T06:50:04.700Z,102847.06
2023-05-27T06:52:34.345Z,102841.66
2023-05-27T06:55:18.201Z,102844.79
2023-05-27T06:58:08.020Z,102842.05
2023-05-27T07:00:42.107Z,102846.33
2023-05-27T07:03:29.258Z,102842.18
2023-05-27T07:08:29.357Z,102836.27
2023-05-27T07:11:09.596Z,102831.25
2023-05-27T07:13:39.154Z,102829.73
2023-05-27T07:16:08.917Z,102823.50
2023-05-27T07:18:38.323Z,102827.19
2023-05-27T07:21:08.198Z,102825.68
2023-05-27T07:23:37.511Z,102828.11
2023-05-27T07:26:18.032Z,102818.95
2023-05-27T07:28:48.648Z,102822.72
2023-05-27T07:31:22.398Z,102815.08
2023-05-27T07:33:53.526Z,102820.73
2023-05-27T07:36:24.013Z,102818.72
2023-05-27T07:38:53.548Z,102814.14
2023-05-27T07:41:23.203Z,102809.72
2023-05-27T07:43:52.630Z,102806.14
2023-05-27T07:46:21.990Z,102805.84
2023-05-27T07:48:51.736Z,102800.33
2023-05-27T07:51:21.307Z,102803.27
2023-05-27T07:53:50.866Z,102792.37
2023-05-27T07:56:21.616Z,102794.78
2023-05-27T07:58:51.019Z,102789.06
2023-05-27T08:01:21.481Z,102792.61
2023-05-27T08:03:51.856Z,102794.07
2023-05-27T08:06:22.973Z,102792.34
2023-05-27T08:08:54.089Z,102788.75
2023-05-27T08:11:25.192Z,102788.28
2023-05-27T08:13:59.187Z,102786.05
2023-05-27T08:16:43.785Z,102783.97
2023-05-27T08:19:15.077Z,102780.75
2023-05-27T08:21:46.177Z,102780.03
2023-05-27T08:24:33.844Z,102774.09
2023-05-27T08:27:26.616Z,102770.14
2023-05-27T08:30:00.626Z,102768.53
2023-05-27T08:32:42.619Z,102765.03
2023-05-27T08:35:12.713Z,102763.08
2023-05-27T08:37:42.522Z,102755.16
2023-05-27T08:40:20.919Z,102752.20
2023-05-27T08:42:52.150Z,102745.11
2023-05-27T08:45:23.389Z,102747.66
2023-05-27T08:47:54.071Z,102743.83
2023-05-27T08:50:25.442Z,102736.72
2023-05-27T08:52:57.560Z,102737.47
2023-05-27T08:55:29.655Z,102731.45
2023-05-27T08:58:00.473Z,102731.92
2023-05-27T09:00:31.985Z,102723.09
2023-05-27T09:03:03.787Z,102726.01
2023-05-27T09:05:35.074Z,102715.38
2023-05-27T09:08:04.423Z,102715.88
2023-05-27T09:10:40.507Z,102715.50
2023-05-27T09:13:10.344Z,102707.77
2023-05-27T09:15:39.875Z,102709.75
2023-05-27T09:18:09.381Z,102707.82
2023-05-27T09:20:38.762Z,102714.92
2023-05-27T09:23:09.483Z,102707.45
2023-05-27T09:25:38.931Z,102703.55
2023-05-27T09:28:09.225Z,102701.97
2023-05-27T09:30:38.596Z,102697.59
2023-05-27T09:33:08.574Z,102694.22
2023-05-27T09:35:41.575Z,102691.48
2023-05-27T09:38:11.566Z,102687.95
2023-05-27T09:40:42.657Z,102690.47
2023-05-27T09:43:17.166Z,102686.75
2023-05-27T09:45:47.400Z,102684.75
2023-05-27T09:48:18.486Z,102683.91
2023-05-27T09:50:49.192Z,102676.50
2023-05-27T09:53:19.506Z,102676.34
2023-05-27T09:55:48.957Z,102679.69
2023-05-27T09:58:18.803Z,102682.50
2023-05-27T10:00:49.140Z,102682.50
2023-05-27T10:03:23.187Z,102670.84
2023-05-27T10:05:54.206Z,102673.09
2023-05-27T10:08:26.727Z,102679.53
2023-05-27T10:10:55.645Z,102672.36
2023-05-27T10:13:26.925Z,102676.64
2023-05-27T10:15:56.279Z,102674.59
2023-05-27T10:18:28.550Z,102670.30
2023-05-27T10:21:00.284Z,102667.98
2023-05-27T10:23:32.137Z,102664.61
2023-05-27T10:26:09.570Z,102661.22
2023-05-27T10:28:44.155Z,102651.88
2023-05-27T10:31:15.978Z,102646.46
2023-05-27T10:33:45.685Z,102645.30
2023-05-27T10:36:17.660Z,102649.38
2023-05-27T10:38:58.042Z,102640.47
2023-05-27T10:41:28.403Z,102641.22
2023-05-27T10:44:00.236Z,102638.70
2023-05-27T10:46:32.883Z,102638.40
2023-05-27T10:49:05.376Z,102638.88
2023-05-27T10:51:34.807Z,102629.27
2023-05-27T10:56:41.332Z,102620.75
2023-05-27T10:59:12.237Z,102614.45
2023-05-27T11:01:41.887Z,102608.06
2023-05-27T11:04:11.464Z,102607.47
2023-05-27T11:06:42.013Z,102604.48
2023-05-27T11:09:11.587Z,102600.67
2023-05-27T11:11:41.201Z,102601.46
2023-05-27T11:14:10.517Z,102593.38
2023-05-27T11:16:39.987Z,102589.23
2023-05-27T11:19:12.717Z,102590.09
2023-05-27T11:21:47.602Z,102577.33
2023-05-27T11:24:18.689Z,102577.00
2023-05-27T11:26:48.886Z,102573.20
2023-05-27T11:29:18.547Z,102568.43
2023-05-27T11:31:50.767Z,102563.33
2023-05-27T11:34:21.564Z,102555.72
2023-05-27T11:36:54.259Z,102549.16
2023-05-27T11:39:23.579Z,102553.84
2023-05-27T11:41:54.687Z,102541.55
2023-05-27T11:44:27.107Z,102539.57
2023-05-27T11:47:03.842Z,102527.57
2023-05-27T11:49:33.217Z,102533.41
2023-05-27T11:52:02.716Z,102527.28
2023-05-27T11:54:34.866Z,102531.45
2023-05-27T11:57:05.595Z,102525.71
2023-05-27T11:59:36.476Z,102529.36
2023-05-27T12:02:06.348Z,102524.38
2023-05-27T12:04:35.801Z,102526.34
2023-05-27T12:07:12.319Z,102524.16
2023-05-27T12:09:36.186Z,102512.17
2023-05-27T12:12:05.875Z,102501.85
2023-05-27T12:14:35.213Z,102502.61
2023-05-27T12:17:04.546Z,102501.45
2023-05-27T12:19:35.659Z,102486.06
2023-05-27T12:22:05.119Z,102492.19
2023-05-27T12:24:35.638Z,102487.94
2023-05-27T12:27:05.157Z,102490.94
2023-05-27T12:29:35.935Z,102488.63
2023-05-27T12:32:05.661Z,102478.69
2023-05-27T12:34:34.977Z,102478.61
2023-05-27T12:37:04.359Z,102478.80
2023-05-27T12:39:33.686Z,102469.64
2023-05-27T12:42:03.076Z,102476.16
2023-05-27T12:44:32.425Z,102466.94
2023-05-27T12:47:01.847Z,102464.05
2023-05-27T12:49:31.274Z,102468.88
2023-05-27T12:52:01.253Z,102464.05
2023-05-27T12:54:30.597Z,102462.28
2023-05-27T12:57:03.568Z,102460.95
2023-05-27T12:59:34.517Z,102453.56
2023-05-27T13:02:03.892Z,102449.59
2023-05-27T13:04:33.310Z,102445.11
2023-05-27T13:07:02.815Z,102448.38
2023-05-27T13:09:32.464Z,102441.86
2023-05-27T13:12:03.171Z,102444.28
2023-05-27T13:14:32.672Z,102437.34
2023-05-27T13:17:03.326Z,102435.84
2023-05-27T13:19:32.867Z,102432.49
2023-05-27T13:22:02.590Z,102433.09
2023-05-27T13:24:31.971Z,102434.53
2023-05-27T13:27:01.634Z,102432.39
2023-05-27T13:29:31.021Z,102429.22
2023-05-27T13:32:00.380Z,102422.32
2023-05-27T13:34:30.961Z,102423.53
2023-05-27T13:37:00.473Z,102418.62
2023-05-27T13:39:31.060Z,102415.70
2023-05-27T13:42:00.837Z,102420.84
2023-05-27T13:44:30.246Z,102406.45
2023-05-27T13:46:59.579Z,102399.34
2023-05-27T13:49:28.971Z,102403.05
2023-05-27T13:51:58.463Z,102398.09
2023-05-27T13:54:28.337Z,102394.50
2023-05-27T13:56:57.720Z,102389.42
2023-05-27T13:59:27.085Z,102387.05
2023-05-27T14:01:56.421Z,102384.98
2023-05-27T14:04:25.758Z,102389.50
2023-05-27T14:06:55.332Z,102379.17
2023-05-27T14:09:24.627Z,102377.88
2023-05-27T14:11:54.418Z,102377.80
2023-05-27T14:14:23.809Z,102368.33
2023-05-27T14:16:53.518Z,102359.23
2023-05-27T14:19:23.145Z,102359.23
2023-05-27T14:21:52.854Z,102360.53
2023-05-27T14:24:22.364Z,102354.18
2023-05-27T14:26:51.724Z,102359.88
2023-05-27T14:29:21.396Z,102355.47
2023-05-27T14:31:50.828Z,102347.36
2023-05-27T14:34:20.195Z,102350.89
2023-05-27T14:36:49.564Z,102348.23
2023-05-27T14:39:19.058Z,102352.20
2023-05-27T14:41:49.913Z,102346.83
2023-05-27T14:44:19.223Z,102342.23
2023-05-27T14:46:48.792Z,102334.48
2023-05-27T14:49:18.253Z,102345.06
2023-05-27T14:51:47.621Z,102335.29
2023-05-27T14:54:17.037Z,102333.03
2023-05-27T14:56:46.503Z,102331.13
2023-05-27T14:59:15.898Z,102327.30
2023-05-27T15:01:45.431Z,102324.90
2023-05-27T15:04:14.915Z,102326.09
2023-05-27T15:06:44.285Z,102326.05
2023-05-27T15:09:14.166Z,102331.19
2023-05-27T15:11:43.546Z,102320.33
2023-05-27T15:14:12.871Z,102327.72
2023-05-27T15:16:42.326Z,102315.53
2023-05-27T15:19:11.837Z,102321.97
2023-05-27T15:21:41.282Z,102320.80
2023-05-27T15:24:10.667Z,102308.30
2023-05-27T15:26:40.062Z,102310.84
2023-05-27T15:29:09.365Z,102310.28
2023-05-27T15:31:39.057Z,102312.50
2023-05-27T15:34:08.617Z,102299.37
2023-05-27T15:36:37.998Z,102297.68
2023-05-27T15:39:10.274Z,102293.67
2023-05-27T15:41:40.854Z,102287.73
2023-05-27T15:44:10.171Z,102289.70
2023-05-27T15:46:40.141Z,102285.31
2023-05-27T15:49:09.478Z,102289.03
2023-05-27T15:51:39.720Z,102282.42
2023-05-27T15:54:09.226Z,102279.81
2023-05-27T15:56:38.682Z,102279.44
2023-05-27T15:59:08.182Z,102276.40
2023-05-27T16:01:37.843Z,102281.53
2023-05-27T16:04:07.654Z,102275.66
2023-05-27T16:06:37.116Z,102275.02
2023-05-27T16:09:07.036Z,102273.14
2023-05-27T16:11:37.111Z,102268.52
2023-05-27T16:14:06.428Z,102264.37
2023-05-27T16:16:36.423Z,102259.91
2023-05-27T16:19:06.036Z,102258.74
2023-05-27T16:21:35.442Z,102262.17
2023-05-27T16:24:07.865Z,102267.64
2023-05-27T16:26:36.394Z,102260.75
2023-05-27T16:29:06.366Z,102258.65
2023-05-27T16:31:35.748Z,102260.62
2023-05-27T16:34:05.124Z,102256.27
2023-05-27T16:36:34.602Z,102249.50
2023-05-27T16:39:03.938Z,102246.25
2023-05-27T16:41:33.713Z,102247.45
2023-05-27T16:44:03.344Z,102243.80
2023-05-27T16:46:34.250Z,102242.23
2023-05-27T16:49:03.944Z,102240.37
2023-05-27T16:51:33.302Z,102238.15
2023-05-27T16:54:02.689Z,102232.05
2023-05-27T16:56:32.097Z,102239.06
2023-05-27T16:59:01.842Z,102237.36
2023-05-27T17:01:31.265Z,102230.94
2023-05-27T17:04:00.659Z,102231.91
2023-05-27T17:06:30.148Z,102225.42
2023-05-27T17:08:59.497Z,102228.66
2023-05-27T17:11:28.890Z,102225.79
2023-05-27T17:13:58.431Z,102223.45
2023-05-27T17:16:28.000Z,102224.13
2023-05-27T17:18:57.653Z,102216.02
2023-05-27T17:21:27.102Z,102218.28
2023-05-27T17:23:56.561Z,102216.42
2023-05-27T17:26:27.429Z,102220.25
2023-05-27T17:28:56.757Z,102215.78
2023-05-27T17:31:26.126Z,102215.09
2023-05-27T17:33:56.094Z,102210.33
2023-05-27T17:36:25.556Z,102217.41
2023-05-27T17:38:55.311Z,102211.06
2023-05-27T17:41:25.219Z,102210.73
2023-05-27T17:43:54.634Z,102201.22
2023-05-27T17:46:24.750Z,102207.20
2023-05-27T17:48:54.171Z,102203.03
2023-05-27T17:51:23.494Z,102206.25
2023-05-27T17:53:54.538Z,102203.00
2023-05-27T17:56:24.304Z,102195.38
2023-05-27T17:58:53.921Z,102200.78
2023-05-27T18:01:23.301Z,102202.83
2023-05-27T18:03:52.726Z,102200.34
2023-05-27T18:06:22.050Z,102212.41
2023-05-27T18:08:51.396Z,102210.89
2023-05-27T18:11:20.784Z,102207.78
2023-05-27T18:13:50.133Z,102207.78
2023-05-27T18:16:19.553Z,102210.13
2023-05-27T18:18:48.932Z,102215.09
2023-05-27T18:21:18.436Z,102210.79
2023-05-27T18:23:48.040Z,102203.82
2023-05-27T18:26:17.461Z,102206.49
2023-05-27T18:28:46.782Z,102204.13
2023-05-27T18:31:16.152Z,102195.24
2023-05-27T18:33:45.737Z,102195.54
2023-05-27T18:36:15.170Z,102198.79
2023-05-27T18:38:44.499Z,102199.80
2023-05-27T18:41:13.967Z,102203.37
2023-05-27T18:43:43.296Z,102204.33
2023-05-27T18:46:12.686Z,102202.92
2023-05-27T18:48:42.139Z,102209.20
2023-05-27T18:51:11.967Z,102207.42
2023-05-27T18:53:43.093Z,102210.52
2023-05-27T18:56:13.758Z,102206.83
2023-05-27T18:58:43.149Z,102200.16
2023-05-27T19:01:14.589Z,102206.22
2023-05-27T19:03:44.123Z,102201.36
2023-05-27T19:06:13.662Z,102206.23
2023-05-27T19:08:43.041Z,102204.53
2023-05-27T19:11:12.789Z,102203.02
2023-05-27T19:13:42.167Z,102208.88
2023-05-27T19:16:11.644Z,102208.42
2023-05-27T19:18:41.115Z,102208.82
2023-05-27T19:21:10.924Z,102212.67
2023-05-27T19:23:41.502Z,102218.33
2023-05-27T19:26:11.297Z,102214.72
2023-05-27T19:28:42.103Z,102215.52
2023-05-27T19:31:12.826Z,102215.38
2023-05-27T19:33:42.297Z,102215.19
2023-05-27T19:36:12.244Z,102214.86
2023-05-27T19:38:41.861Z,102215.85
2023-05-27T19:41:11.290Z,102217.72
2023-05-27T19:43:40.613Z,102214.71
2023-05-27T19:46:09.999Z,102216.41
2023-05-27T19:48:39.289Z,102221.91
2023-05-27T19:51:09.822Z,102223.46
2023-05-27T19:53:43.211Z,102220.23
2023-05-27T19:56:12.626Z,102221.22
2023-05-27T19:58:43.311Z,102219.40
2023-05-27T20:01:12.718Z,102215.14
2023-05-27T20:03:42.232Z,102218.52
2023-05-27T20:06:13.714Z,102226.94
2023-05-27T20:08:44.111Z,102225.27
2023-05-27T20:11:13.517Z,102227.98
2023-05-27T20:13:42.912Z,102226.95
2023-05-27T20:16:14.200Z,102227.73
2023-05-27T20:18:44.516Z,102232.67
2023-05-27T20:21:14.099Z,102231.75
2023-05-27T20:23:43.529Z,102232.60
2023-05-27T20:26:12.889Z,102234.16
2023-05-27T20:28:42.237Z,102240.52
2023-05-27T20:31:13.599Z,102235.27
2023-05-27T20:33:43.123Z,102234.59
2023-05-27T20:36:12.463Z,102234.35
2023-05-27T20:38:42.188Z,102238.45
2023-05-27T20:41:11.709Z,102231.48
2023-05-27T20:43:42.786Z,102233.55
2023-05-27T20:46:12.151Z,102241.13
2023-05-27T20:48:41.636Z,102236.48
2023-05-27T20:51:11.136Z,102229.41
2023-05-27T20:53:40.770Z,102231.95
2023-05-27T20:56:10.129Z,102231.86
2023-05-27T20:58:39.608Z,102230.31
2023-05-27T21:01:08.980Z,102226.12
2023-05-27T21:03:38.519Z,102224.83
2023-05-27T21:06:08.196Z,102224.52
2023-05-27T21:08:37.542Z,102221.10
2023-05-27T21:11:06.869Z,102216.17
2023-05-27T21:13:36.321Z,102220.16
2023-05-27T21:16:07.096Z,102221.73
2023-05-27T21:18:37.146Z,102222.45
2023-05-27T21:21:09.703Z,102223.78
2023-05-27T21:23:39.125Z,102224.53
2023-05-27T21:26:09.065Z,102225.29
2023-05-27T21:28:39.748Z,102227.94
2023-05-27T21:31:09.183Z,102223.58
2023-05-27T21:33:38.553Z,102230.10
2023-05-27T21:36:08.344Z,102230.02
2023-05-27T21:38:38.986Z,102229.66
2023-05-27T21:41:08.575Z,102226.42
2023-05-27T21:43:38.030Z,102220.73
2023-05-27T21:46:07.344Z,102227.12
2023-05-27T21:48:36.859Z,102226.30
2023-05-27T21:51:06.509Z,102224.95
2023-05-27T21:53:35.871Z,102221.48
2023-05-27T21:56:05.441Z,102211.95
2023-05-27T21:58:34.767Z,102213.99
2023-05-27T22:01:04.618Z,102203.16
2023-05-27T22:03:34.236Z,102198.80
2023-05-27T22:06:03.846Z,102201.59
2023-05-27T22:08:33.585Z,102204.34
2023-05-27T22:11:03.885Z,102204.71
2023-05-27T22:13:33.327Z,102203.02
2023-05-27T22:16:03.144Z,102201.31
2023-05-27T22:18:32.909Z,102198.08
2023-05-27T22:21:02.223Z,102202.64
2023-05-27T22:23:31.694Z,102202.30
2023-05-27T22:26:01.178Z,102194.23
2023-05-27T22:28:30.936Z,102196.36
2023-05-27T22:31:00.456Z,102194.91
2023-05-27T22:33:29.862Z,102193.23
2023-05-27T22:35:59.815Z,102190.00
2023-05-27T22:38:29.137Z,102195.06
2023-05-27T22:40:58.498Z,102192.77
2023-05-27T22:43:27.818Z,102187.71
2023-05-27T22:45:57.176Z,102188.77
2023-05-27T22:48:26.587Z,102188.27
2023-05-27T22:50:56.309Z,102186.56
2023-05-27T22:53:25.722Z,102180.92
2023-05-27T22:55:55.335Z,102174.54
2023-05-27T22:58:24.971Z,102170.19
2023-05-27T23:00:54.348Z,102171.27
2023-05-27T23:03:23.832Z,102169.57
2023-05-27T23:05:53.574Z,102163.81
2023-05-27T23:08:23.353Z,102161.86
2023-05-27T23:10:52.786Z,102160.42
2023-05-27T23:13:22.119Z,102160.66
2023-05-27T23:15:53.628Z,102162.09
2023-05-27T23:18:23.206Z,102160.88
2023-05-27T23:20:52.578Z,102161.12
2023-05-27T23:23:21.922Z,102151.01
2023-05-27T23:25:52.278Z,102150.62
2023-05-27T23:28:21.819Z,102149.17
2023-05-27T23:30:53.012Z,102143.64
2023-05-27T23:33:22.410Z,102140.84
2023-05-27T23:35:51.897Z,102142.78
2023-05-27T23:38:21.485Z,102148.58
2023-05-27T23:40:51.951Z,102149.54
2023-05-27T23:43:21.346Z,102150.05
2023-05-27T23:45:51.052Z,102147.36
2023-05-27T23:48:20.728Z,102150.36
2023-05-27T23:50:50.868Z,102149.04
2023-05-27T23:53:20.329Z,102148.58
2023-05-27T23:55:52.025Z,102146.70
2023-05-27T23:58:21.713Z,102144.48
